createdAt,value
2023-07-10T06:09:08.116Z,5.50
2023-07-10T06:12:14.534Z,5.73
2023-07-10T06:15:17.942Z,5.22
2023-07-10T06:18:23.982Z,6.15
2023-07-10T06:21:27.135Z,6.25
2023-07-10T06:24:32.710Z,5.85
2023-07-10T06:27:38.121Z,6.27
2023-07-10T06:30:51.190Z,5.82
2023-07-10T06:33:57.671Z,5.55
2023-07-10T06:37:01.430Z,5.60
2023-07-10T06:40:12.635Z,5.60
2023-07-10T06:43:23.481Z,5.40
2023-07-10T06:46:27.263Z,5.88
2023-07-10T06:49:30.431Z,5.60
2023-07-10T06:52:34.201Z,5.40
2023-07-10T06:55:38.987Z,5.93
2023-07-10T06:58:44.132Z,5.47
2023-07-10T07:01:47.368Z,5.45
2023-07-10T07:04:50.876Z,5.28
2023-07-10T07:07:54.167Z,5.70
2023-07-10T07:10:58.758Z,5.55
2023-07-10T07:14:01.910Z,5.33
2023-07-10T07:17:07.172Z,5.43
2023-07-10T07:20:11.114Z,6.07
2023-07-10T07:23:14.744Z,5.30
2023-07-10T07:26:19.168Z,6.15
2023-07-10T07:29:22.267Z,5.50
2023-07-10T07:32:25.401Z,5.57
2023-07-10T07:35:42.865Z,5.93
2023-07-10T07:38:45.950Z,5.38
2023-07-10T07:42:18.059Z,5.13
2023-07-10T07:45:23.221Z,4.80
2023-07-10T07:48:29.590Z,5.30
2023-07-10T07:51:40.526Z,5.07
2023-07-10T07:54:47.277Z,4.82
2023-07-10T07:57:51.831Z,5.40
2023-07-10T08:00:55.509Z,4.10
2023-07-10T08:03:58.649Z,4.50
2023-07-10T08:07:01.786Z,4.65
2023-07-10T08:10:05.818Z,4.30
2023-07-10T08:13:14.843Z,4.97
2023-07-10T08:16:19.596Z,4.20
2023-07-10T08:19:25.676Z,4.28
2023-07-10T08:22:28.939Z,4.40
2023-07-10T08:25:32.054Z,4.38
2023-07-10T08:28:36.804Z,4.40
2023-07-10T08:31:39.875Z,4.50
2023-07-10T08:34:43.044Z,4.53
2023-07-10T08:37:46.312Z,4.35
2023-07-10T08:40:56.430Z,4.60
2023-07-10T08:44:00.867Z,4.85
2023-07-10T08:47:13.710Z,3.90
2023-07-10T08:50:23.909Z,3.97
2023-07-10T08:53:32.643Z,4.30
2023-07-10T08:56:37.409Z,4.40
2023-07-10T08:59:53.204Z,4.60
2023-07-10T09:03:05.996Z,4.43
2023-07-10T09:06:19.472Z,4.50
2023-07-10T09:09:40.707Z,4.70
2023-07-10T09:12:51.705Z,4.43
2023-07-10T09:16:03.853Z,4.00
2023-07-10T09:19:15.360Z,4.30
2023-07-10T09:22:18.497Z,4.85
2023-07-10T09:25:23.099Z,4.47
2023-07-10T09:28:28.499Z,4.68
2023-07-10T09:31:47.277Z,4.55
2023-07-10T09:34:54.957Z,4.90
2023-07-10T09:37:58.419Z,4.68
2023-07-10T09:41:12.418Z,4.38
2023-07-10T09:44:19.090Z,4.78
2023-07-10T09:47:38.653Z,4.35
2023-07-10T09:50:44.520Z,4.50
2023-07-10T09:53:55.064Z,4.90
2023-07-10T09:57:00.366Z,4.90
2023-07-10T10:00:04.787Z,4.30
2023-07-10T10:03:21.821Z,4.70
2023-07-10T10:06:28.811Z,4.50
2023-07-10T10:09:32.074Z,4.82
2023-07-10T10:12:53.779Z,5.00
2023-07-10T10:16:05.616Z,4.65
2023-07-10T10:19:17.600Z,4.68
2023-07-10T10:22:21.054Z,4.83
2023-07-10T10:25:33.795Z,4.60
2023-07-10T10:28:46.604Z,4.60
2023-07-10T10:31:55.204Z,5.13
2023-07-10T10:35:09.417Z,4.53
2023-07-10T10:38:36.540Z,4.90
2023-07-10T10:41:47.012Z,4.63
2023-07-10T10:44:58.226Z,4.80
2023-07-10T10:48:12.244Z,4.50
2023-07-10T10:51:32.812Z,4.70
2023-07-10T10:54:46.027Z,4.63
2023-07-10T10:57:58.283Z,4.85
2023-07-10T11:01:16.158Z,5.30
2023-07-10T11:04:25.384Z,4.78
2023-07-10T11:07:32.703Z,4.57
2023-07-10T11:10:39.949Z,5.27
2023-07-10T11:13:43.089Z,5.00
2023-07-10T11:16:48.753Z,4.70
2023-07-10T11:19:52.269Z,5.15
2023-07-10T11:23:03.735Z,5.18
2023-07-10T11:26:11.848Z,4.83
2023-07-10T11:29:30.767Z,5.10
2023-07-10T11:32:55.461Z,5.00
2023-07-10T11:36:37.571Z,5.07
2023-07-10T11:39:48.052Z,5.25
2023-07-10T11:42:51.840Z,4.97
2023-07-10T11:46:04.908Z,4.80
2023-07-10T11:49:23.371Z,5.05
2023-07-10T11:52:38.158Z,4.80
2023-07-10T11:55:59.307Z,5.05
2023-07-10T11:59:05.164Z,4.77
2023-07-10T12:02:36.541Z,5.20
2023-07-10T12:05:42.591Z,5.28
2023-07-10T12:08:47.803Z,5.80
2023-07-10T12:11:58.099Z,5.90
2023-07-10T12:15:05.378Z,5.70
2023-07-10T12:18:10.609Z,5.88
2023-07-10T12:21:17.414Z,5.45
2023-07-10T12:24:22.217Z,5.95
2023-07-10T12:30:39.671Z,5.17
2023-07-10T12:33:47.664Z,5.20
2023-07-10T12:36:53.298Z,5.07
2023-07-10T12:39:57.075Z,5.80
2023-07-10T12:43:22.914Z,5.70
2023-07-10T12:46:29.309Z,5.83
2023-07-10T12:52:53.898Z,6.13
2023-07-10T12:56:10.223Z,6.25
2023-07-10T12:59:21.067Z,5.73
2023-07-10T13:02:26.021Z,5.83
2023-07-10T13:05:36.229Z,5.60
2023-07-10T13:08:42.837Z,5.47
2023-07-10T13:11:46.312Z,5.25
2023-07-10T13:14:53.326Z,5.80
2023-07-10T13:17:57.824Z,5.87
2023-07-10T13:21:00.972Z,6.00
2023-07-10T13:24:04.094Z,5.32
2023-07-10T13:27:17.276Z,5.78
2023-07-10T13:30:23.485Z,6.07
2023-07-10T13:33:28.603Z,5.83
2023-07-10T13:36:32.122Z,5.75
2023-07-10T13:39:36.011Z,5.90
2023-07-10T13:42:40.385Z,5.68
2023-07-10T13:45:46.153Z,5.80
2023-07-10T13:48:51.648Z,6.60
2023-07-10T13:51:56.652Z,6.22
2023-07-10T13:55:00.413Z,5.65
2023-07-10T13:58:03.745Z,5.90
2023-07-10T14:01:08.557Z,5.83
2023-07-10T14:04:11.873Z,5.70
2023-07-10T14:07:17.184Z,5.40
2023-07-10T14:10:24.697Z,5.38
2023-07-10T14:13:29.824Z,5.15
2023-07-10T14:16:34.540Z,5.30
2023-07-10T14:19:39.999Z,5.80
2023-07-10T14:22:46.502Z,5.82
2023-07-10T14:25:50.218Z,5.57
2023-07-10T14:32:18.695Z,6.03
